To NAV CANADA Home Page Login to a new session Search on AWWS site Feedback and Comments Disclaimer Vers la page française équivalente Tips FAQ What's new on the site To the Forecasts and Observations / NOTAM section To "File a Flight Plan" website Publications and other links Update of the User's profile FIC Telephone Numbers My Weather Data Folder Route Weather Data Regional Weather Data Local Weather Data To the Forecasts and Observations / NOTAM section
Request Generated 02/27/2015 at 15:16:41 UTC . Weather information available at that time is displayed.

METAR/TAF

FARO/YT    

METAR CZFA 271500Z 27003KT 240V300 30SM FEW090 SCT140 M16/M18 A3036
RMK AC1AC2 FROIN ACSL CLIMAT -3.3/-17.3/0.0 47035 SLP344=
LWIS CZFA 271400Z AUTO VRB02KT M13/M15 A3036=
LWIS CZFA 271300Z AUTO 32003KT 280V350 M15/M17 A3035=

*** REMARK        : Forecast period has ended; this was the last TAF issued
*** REMARQUE : La période de prévision est échue; ceci était le dernier TAF qui a été émis
TAF CZFA 261739Z 2618/2623 31005KT P6SM FEW008 SCT015 OVC030 TEMPO
2618/2622 5SM BR OVC015 PROB30 2618/2619 2SM BR OVC008
FM262200 30005KT P6SM FEW015 SCT030 TEMPO 2622/2623 BKN030
RMK NXT FCST WILL BE ISSUED AT 271645Z=
Your time UTC time
Weather data provided by Environment Canada and NAV CANADA